Time;durP1;ratioP1;P1;durP2;ratioP2;P2;SDS_P1;SDS_P2;PMS_P1;PMS_P2;Temp;Humidity;BMP_temperature;BMP_pressure;BME280_temperature;BME280_humidity;BME280_pressure;Samples;Min_cycle;Max_cycle;Signal;HPM_P1;HPM_P2
2024/03/10 00:02:10;;;;;;;21.65;3.92;;;;;;;-3.62;43.99;100083.41;4801366;29;20503;-73
2024/03/10 00:04:36;;;;;;;24.90;4.53;;;;;;;-3.61;43.85;100082.63;4770856;29;20054;-74
2024/03/10 00:07:03;;;;;;;13.75;4.72;;;;;;;-3.74;43.82;100081.09;4814274;29;20076;-74
2024/03/10 00:09:30;;;;;;;18.48;3.58;;;;;;;-3.82;43.78;100060.34;4784498;29;20054;-75
2024/03/10 00:11:56;;;;;;;18.63;4.13;;;;;;;-3.45;44.03;100106.31;4783174;29;20889;-76
2024/03/10 00:14:22;;;;;;;21.25;5.22;;;;;;;-3.70;43.84;100072.84;4786025;29;20055;-76
2024/03/10 00:16:48;;;;;;;17.13;4.53;;;;;;;-3.61;44.05;100089.38;4783385;29;20086;-76
2024/03/10 00:19:14;;;;;;;13.82;4.35;;;;;;;-3.45;44.08;100103.78;4800745;29;20128;-76
2024/03/10 00:21:40;;;;;;;15.30;4.13;;;;;;;-3.86;44.47;100020.28;4786821;29;20099;-75
2024/03/10 00:24:09;;;;;;;13.43;3.58;;;;;;;-3.85;44.12;100028.78;4798286;29;20479;-74
2024/03/10 00:26:35;;;;;;;14.05;4.50;;;;;;;-3.47;43.93;100091.00;4771676;29;20058;-74
2024/03/10 00:29:01;;;;;;;15.45;4.03;;;;;;;-3.37;44.42;100107.63;4798440;29;20046;-76
2024/03/10 00:31:27;;;;;;;12.70;3.85;;;;;;;-3.42;43.84;100088.66;4796378;29;20134;-75
2024/03/10 00:33:54;;;;;;;7.13;3.13;;;;;;;-3.80;44.37;100024.81;4795953;29;20503;-75
2024/03/10 00:36:20;;;;;;;9.77;4.03;;;;;;;-3.34;44.02;100103.53;4796760;29;20046;-75
2024/03/10 00:38:46;;;;;;;8.02;4.05;;;;;;;-3.26;43.74;100103.06;4810236;29;20049;-75
2024/03/10 00:41:13;;;;;;;9.25;3.85;;;;;;;-3.36;44.00;100082.22;4797473;29;20100;-74
2024/03/10 00:43:40;;;;;;;8.18;3.72;;;;;;;-3.58;43.69;100056.47;4798493;29;20094;-75
2024/03/10 00:46:06;;;;;;;12.18;4.10;;;;;;;-3.51;43.71;100069.56;4799358;29;20081;-74
2024/03/10 00:48:32;;;;;;;7.05;3.47;;;;;;;-3.82;43.47;100014.56;4796744;29;20047;-74
2024/03/10 00:50:59;;;;;;;8.65;3.70;;;;;;;-3.56;43.24;100053.22;4777181;29;20066;-72
2024/03/10 00:53:26;;;;;;;7.60;4.10;;;;;;;-3.56;43.53;100054.88;4795634;29;20046;-73
2024/03/10 00:55:55;;;;;;;13.25;3.97;;;;;;;-3.48;43.30;100073.97;4811951;29;20066;-72
2024/03/10 00:58:22;;;;;;;11.07;4.30;;;;;;;-3.57;43.77;100068.38;4784263;29;20047;-71
2024/03/10 01:00:48;;;;;;;14.98;3.72;;;;;;;-3.59;43.18;100080.16;4781229;29;20051;-73
2024/03/10 01:03:16;;;;;;;13.50;5.05;;;;;;;-3.54;43.02;100081.28;4783063;29;20860;-73
2024/03/10 01:05:43;;;;;;;11.05;3.78;;;;;;;-3.68;43.47;100078.91;4797464;29;20043;-72
2024/03/10 01:08:10;;;;;;;19.65;4.28;;;;;;;-3.56;43.65;100105.75;4782484;29;20058;-73
2024/03/10 01:10:36;;;;;;;12.40;3.35;;;;;;;-3.67;43.43;100084.84;4765360;29;20039;-72
2024/03/10 01:13:02;;;;;;;12.90;4.00;;;;;;;-3.92;43.43;100058.09;4812010;29;20129;-73
2024/03/10 01:15:31;;;;;;;11.30;3.95;;;;;;;-3.77;43.42;100086.03;4785167;29;20051;-73
2024/03/10 01:17:58;;;;;;;7.90;3.75;;;;;;;-3.86;44.02;100065.19;4781952;29;20043;-73
2024/03/10 01:20:26;;;;;;;11.80;3.83;;;;;;;-3.75;43.96;100079.34;4796097;29;20039;-73
2024/03/10 01:22:52;;;;;;;11.98;3.65;;;;;;;-4.16;44.01;100015.31;4797276;29;20046;-75
2024/03/10 01:25:19;;;;;;;12.85;4.03;;;;;;;-3.60;43.28;100096.22;4794487;29;20069;-74
2024/03/10 01:27:45;;;;;;;13.80;4.15;;;;;;;-3.56;43.52;100108.31;4809985;29;20105;-72
2024/03/10 01:30:11;;;;;;;21.05;4.15;;;;;;;-3.38;43.88;100116.91;4810326;29;20053;-74
2024/03/10 01:32:38;;;;;;;22.67;4.95;;;;;;;-3.42;43.45;100124.31;4796333;29;20130;-76
2024/03/10 01:35:05;;;;;;;26.83;4.45;;;;;;;-3.61;44.09;100079.19;4798086;29;20509;-72
2024/03/10 01:37:32;;;;;;;13.75;4.32;;;;;;;-4.21;43.70;100006.59;4811665;29;20038;-73
2024/03/10 01:39:58;;;;;;;14.27;4.13;;;;;;;-4.10;43.69;100030.03;4782768;29;20049;-73
2024/03/10 01:42:25;;;;;;;20.77;4.40;;;;;;;-3.59;44.21;100103.06;4782586;29;20034;-73
2024/03/10 01:44:53;;;;;;;13.75;3.92;;;;;;;-3.63;44.24;100079.97;4755619;29;20070;-73
2024/03/10 01:47:19;;;;;;;19.30;3.72;;;;;;;-3.40;43.91;100105.75;4795772;29;20043;-72
2024/03/10 01:49:45;;;;;;;11.98;4.18;;;;;;;-3.57;43.85;100069.28;4799975;29;20109;-73
2024/03/10 01:52:12;;;;;;;9.73;3.15;;;;;;;-3.56;43.63;100076.13;4779714;29;20051;-75
2024/03/10 01:54:39;;;;;;;10.55;3.40;;;;;;;-4.06;44.06;100006.50;4779602;29;20047;-75
2024/03/10 01:57:05;;;;;;;12.70;3.42;;;;;;;-3.40;44.02;100103.22;4779690;29;20142;-76
2024/03/10 01:59:32;;;;;;;11.32;3.58;;;;;;;-3.77;43.40;100045.31;4796954;29;20138;-75
2024/03/10 02:01:59;;;;;;;16.73;4.13;;;;;;;-3.48;43.92;100081.59;4797504;29;20032;-74
2024/03/10 02:04:28;;;;;;;11.95;3.30;;;;;;;-3.34;43.48;100097.59;4780215;29;20043;-75
2024/03/10 02:06:55;;;;;;;13.65;3.80;;;;;;;-3.55;43.51;100062.59;4795334;29;20046;-74
2024/03/10 02:09:21;;;;;;;12.98;3.63;;;;;;;-3.27;43.42;100104.72;4811083;29;20099;-72
2024/03/10 02:11:48;;;;;;;12.00;3.80;;;;;;;-3.30;43.71;100094.38;4780265;29;20043;-75
2024/03/10 02:14:16;;;;;;;13.35;3.47;;;;;;;-3.68;43.29;100035.66;4770260;29;20137;-75
2024/03/10 02:16:43;;;;;;;17.33;3.80;;;;;;;-3.18;43.38;100105.22;4796737;29;20053;-74
2024/03/10 02:19:10;;;;;;;10.93;3.38;;;;;;;-3.53;43.90;100032.13;4782268;29;20047;-74
2024/03/10 02:21:36;;;;;;;11.25;3.75;;;;;;;-3.26;43.46;100064.91;4784338;29;20035;-74
2024/03/10 02:24:16;;;;;;;19.98;3.70;;;;;;;-3.14;43.48;100090.97;4787479;29;20043;-73
2024/03/10 02:26:46;;;;;;;19.02;4.63;;;;;;;-3.16;43.62;100086.59;4800801;29;20069;-73
2024/03/10 02:29:23;;;;;;;22.30;4.25;;;;;;;-3.18;43.42;100084.84;4802184;29;20042;-72
2024/03/10 02:48:20;;;;;;;10.43;3.42;;;;;;;-3.58;43.38;100009.00;4800475;29;20171;-73
2024/03/10 02:50:49;;;;;;;14.27;3.67;;;;;;;-3.62;43.33;100004.56;4798681;29;20137;-73
2024/03/10 02:53:15;;;;;;;14.52;4.25;;;;;;;-2.95;43.69;100104.63;4800435;29;20061;-73
2024/03/10 02:55:42;;;;;;;19.73;4.70;;;;;;;-2.94;43.05;100109.81;4757863;29;20046;-72
2024/03/10 02:58:08;;;;;;;20.40;4.13;;;;;;;-3.24;43.37;100058.22;4772133;29;20579;-72
2024/03/10 03:00:35;;;;;;;13.60;4.13;;;;;;;-2.90;43.57;100108.28;4781684;29;20042;-74
2024/03/10 03:03:04;;;;;;;20.42;3.92;;;;;;;-3.14;43.39;100069.72;4784105;29;20058;-73
2024/03/10 03:05:30;;;;;;;16.95;4.50;;;;;;;-2.87;43.16;100124.59;4786956;29;20578;-72
2024/03/10 03:07:58;;;;;;;34.63;5.43;;;;;;;-3.04;43.55;100087.22;4784455;29;20113;-73
2024/03/10 03:10:24;;;;;;;22.25;5.80;;;;;;;-2.97;43.71;100096.03;4782572;29;20069;-73
2024/03/10 03:12:52;;;;;;;12.77;4.60;;;;;;;-2.85;43.79;100119.59;4787329;29;20363;-73
2024/03/10 03:15:18;;;;;;;18.02;4.00;;;;;;;-2.97;43.84;100096.91;4811499;29;20050;-73
2024/03/10 03:17:48;;;;;;;14.80;4.25;;;;;;;-3.04;43.74;100084.66;4799615;29;20038;-71
2024/03/10 03:20:17;;;;;;;22.92;4.93;;;;;;;-2.93;43.68;100097.94;4798146;29;20099;-74
2024/03/10 03:22:44;;;;;;;27.23;4.78;;;;;;;-2.94;43.68;100091.09;4799504;29;20096;-73
2024/03/10 03:25:14;;;;;;;46.47;5.63;;;;;;;-3.21;43.67;100032.91;4786427;29;20043;-73
2024/03/10 03:27:41;;;;;;;23.58;4.50;;;;;;;-3.08;43.86;100057.28;4799757;29;20050;-73
2024/03/10 03:30:08;;;;;;;16.08;5.10;;;;;;;-2.70;44.10;100126.22;4796674;29;20467;-73
2024/03/10 03:32:34;;;;;;;25.65;5.22;;;;;;;-2.72;43.83;100121.06;4783186;29;20107;-74
2024/03/10 03:35:01;;;;;;;17.95;5.05;;;;;;;-2.89;44.01;100087.09;4812126;29;20063;-73
2024/03/10 03:37:27;;;;;;;28.08;4.95;;;;;;;-2.84;43.68;100102.63;4803581;29;20043;-72
2024/03/10 03:39:53;;;;;;;30.70;4.97;;;;;;;-2.64;43.71;100136.75;4787016;29;20070;-74
2024/03/10 03:42:19;;;;;;;20.83;5.53;;;;;;;-2.86;43.68;100100.00;4798520;29;20126;-73
2024/03/10 03:44:46;;;;;;;26.65;5.47;;;;;;;-2.97;43.30;100088.38;4785669;29;20043;-73
2024/03/10 03:47:12;;;;;;;34.53;6.45;;;;;;;-2.75;43.59;100131.09;4783321;29;20049;-73
2024/03/10 03:49:38;;;;;;;19.73;4.80;;;;;;;-3.05;43.50;100093.09;4772655;29;20042;-74
2024/03/10 03:52:07;;;;;;;27.85;4.82;;;;;;;-2.79;43.48;100125.00;4813173;29;20062;-72
2024/03/10 03:54:34;;;;;;;20.98;5.35;;;;;;;-2.76;42.90;100127.66;4762972;29;20061;-75
2024/03/10 03:57:01;;;;;;;13.30;5.18;;;;;;;-2.77;43.63;100136.13;4813976;29;20120;-72
2024/03/10 03:59:27;;;;;;;17.00;4.93;;;;;;;-3.04;43.17;100100.84;4783644;29;20045;-73
2024/03/10 04:01:53;;;;;;;16.85;5.43;;;;;;;-2.88;43.72;100124.53;4812330;29;20039;-73
2024/03/10 04:04:19;;;;;;;38.03;14.77;;;;;;;-3.03;43.14;100105.13;4768088;29;20130;-74
2024/03/10 04:06:46;;;;;;;17.33;6.15;;;;;;;-2.92;43.32;100140.44;4798835;29;20071;-75
2024/03/10 04:09:12;;;;;;;17.88;4.82;;;;;;;-2.94;43.28;100140.38;4800334;29;20388;-73
2024/03/10 04:11:42;;;;;;;16.23;5.25;;;;;;;-3.07;42.89;100128.69;4782560;29;20400;-74
2024/03/10 04:14:09;;;;;;;17.10;5.60;;;;;;;-2.80;43.17;100145.28;4799596;29;20047;-74
2024/03/10 04:16:36;;;;;;;12.25;4.20;;;;;;;-2.81;42.90;100135.88;4798812;29;20109;-76
2024/03/10 04:19:05;;;;;;;10.88;4.65;;;;;;;-3.10;43.10;100074.19;4799148;29;20051;-74
2024/03/10 04:21:31;;;;;;;8.75;3.95;;;;;;;-3.44;42.61;100026.63;4797702;29;20050;-74
2024/03/10 04:23:58;;;;;;;6.18;3.38;;;;;;;-3.11;42.62;100098.75;4770446;29;20043;-73
2024/03/10 04:26:25;;;;;;;8.70;3.90;;;;;;;-3.16;42.66;100086.59;4796203;29;20054;-73
2024/03/10 04:28:51;;;;;;;8.50;3.53;;;;;;;-2.93;42.51;100120.84;4797160;29;20046;-74
2024/03/10 04:31:18;;;;;;;7.03;3.10;;;;;;;-2.93;42.68;100128.50;4786050;29;20055;-74
2024/03/10 04:33:45;;;;;;;6.43;3.30;;;;;;;-2.83;42.40;100140.91;4795745;29;20126;-74
2024/03/10 04:36:11;;;;;;;6.38;3.20;;;;;;;-3.02;42.04;100131.47;4798885;29;20206;-73
2024/03/10 04:38:38;;;;;;;6.57;3.10;;;;;;;-2.76;42.34;100165.03;4770289;29;20579;-73
2024/03/10 04:41:05;;;;;;;6.78;3.30;;;;;;;-2.68;42.25;100157.75;4771895;29;20098;-73
2024/03/10 04:43:31;;;;;;;7.57;3.05;;;;;;;-2.92;41.79;100128.59;4792601;29;20046;-76
2024/03/10 04:46:00;;;;;;;6.20;3.08;;;;;;;-2.65;42.25;100166.47;4797303;29;20767;-81
2024/03/10 04:48:27;;;;;;;6.63;2.83;;;;;;;-2.76;41.95;100148.06;4754977;29;20051;-73
2024/03/10 04:50:53;;;;;;;7.10;3.10;;;;;;;-2.86;41.85;100122.94;4780445;29;20050;-77
2024/03/10 04:53:19;;;;;;;6.00;2.85;;;;;;;-2.50;41.86;100171.41;4773516;29;20115;-76
2024/03/10 04:55:45;;;;;;;7.03;3.00;;;;;;;-2.88;41.92;100083.75;4794672;29;20050;-76
2024/03/10 04:58:11;;;;;;;6.72;2.83;;;;;;;-2.60;41.61;100115.72;4814158;29;20047;-80
2024/03/10 05:00:37;;;;;;;6.22;2.83;;;;;;;-1.96;41.37;100183.38;4801050;29;20042;-76
2024/03/10 05:03:05;;;;;;;5.32;2.80;;;;;;;-1.83;41.16;100189.94;4784638;29;20076;-75
2024/03/10 05:05:32;;;;;;;7.70;3.08;;;;;;;-2.21;40.89;100105.69;4801522;29;20075;-76
2024/03/10 05:07:58;;;;;;;6.75;2.58;;;;;;;-1.58;40.94;100175.78;4762327;29;20042;-78
2024/03/10 05:10:24;;;;;;;7.72;2.70;;;;;;;-1.45;40.50;100164.44;4769874;29;20051;-75
2024/03/10 05:12:50;;;;;;;7.65;3.00;;;;;;;-1.11;40.75;100177.06;4795354;29;20964;-74
2024/03/10 05:15:17;;;;;;;8.63;2.85;;;;;;;-1.29;39.90;100118.38;4779523;29;20042;-73
2024/03/10 05:17:43;;;;;;;4.97;2.65;;;;;;;-0.81;39.65;100189.41;4793677;29;20070;-79
2024/03/10 05:20:11;;;;;;;4.03;2.10;;;;;;;-0.48;39.76;100217.25;4791661;29;20070;-71
2024/03/10 05:22:39;;;;;;;4.55;2.13;;;;;;;-0.35;39.89;100181.94;4777949;29;20106;-69
2024/03/10 05:25:09;;;;;;;6.25;1.80;;;;;;;-0.14;38.94;100168.28;4788506;29;20051;-71
2024/03/10 05:27:37;;;;;;;3.05;1.75;;;;;;;0.65;39.08;100218.31;4794553;29;20087;-76
2024/03/10 05:30:04;;;;;;;5.07;2.50;;;;;;;1.12;38.66;100207.16;4796388;29;20047;-74
2024/03/10 05:32:30;;;;;;;6.28;2.60;;;;;;;1.38;38.27;100204.66;4799921;29;20058;-76
2024/03/10 05:34:56;;;;;;;7.63;3.13;;;;;;;1.46;37.54;100216.06;4792984;29;20053;-73
2024/03/10 05:37:23;;;;;;;5.35;2.70;;;;;;;1.19;36.74;100188.63;4793020;29;20454;-74
2024/03/10 05:39:49;;;;;;;5.40;3.00;;;;;;;1.18;36.68;100222.78;4762285;29;20426;-74
2024/03/10 05:42:15;;;;;;;6.35;3.05;;;;;;;0.73;37.16;100182.72;4809101;29;20575;-73
2024/03/10 05:44:41;;;;;;;6.63;2.90;;;;;;;0.78;37.01;100227.31;4781030;29;20051;-74
2024/03/10 05:47:07;;;;;;;5.90;2.70;;;;;;;0.97;37.25;100230.56;4807302;29;20064;-81
2024/03/10 05:49:33;;;;;;;5.65;2.80;;;;;;;0.46;37.30;100147.56;4759584;29;20464;-76
2024/03/10 05:51:59;;;;;;;4.85;2.78;;;;;;;0.63;36.72;100183.19;4795706;29;20979;-74
2024/03/10 05:54:26;;;;;;;7.40;3.15;;;;;;;0.95;37.30;100158.75;4774021;30;20142;-74
2024/03/10 05:56:52;;;;;;;4.75;2.67;;;;;;;1.71;36.17;100230.59;4761010;30;20039;-68
2024/03/10 05:59:18;;;;;;;5.20;2.60;;;;;;;1.99;36.14;100228.97;4778273;29;20405;-69
2024/03/10 06:01:45;;;;;;;6.80;3.05;;;;;;;2.22;36.43;100221.97;4758420;29;20520;-72
2024/03/10 06:04:11;;;;;;;9.23;4.38;;;;;;;3.26;35.63;100235.34;4758299;30;20051;-71
2024/03/10 06:06:41;;;;;;;10.18;5.05;;;;;;;4.75;35.54;100197.72;4777107;30;20047;-70
2024/03/10 06:09:07;;;;;;;6.32;3.58;;;;;;;6.42;34.14;100199.00;4789003;29;20051;-72
2024/03/10 06:11:33;;;;;;;7.32;3.13;;;;;;;7.77;33.35;100172.03;4775114;29;20071;-73
2024/03/10 06:13:59;;;;;;;5.03;3.15;;;;;;;9.65;32.30;100176.44;4773887;29;20125;-73
2024/03/10 06:16:26;;;;;;;8.45;3.28;;;;;;;10.38;30.19;100173.78;4785439;29;20130;-73
2024/03/10 06:26:56;;;;;;;4.97;3.05;;;;;;;12.77;27.49;100219.19;4778128;29;20555;-73
2024/03/10 06:29:23;;;;;;;6.10;3.10;;;;;;;12.24;26.79;100185.81;4790069;29;20047;-73
2024/03/10 06:31:50;;;;;;;6.43;3.33;;;;;;;11.95;26.39;100228.63;4772959;30;20063;-75
2024/03/10 06:34:20;;;;;;;6.75;3.28;;;;;;;11.33;25.99;100182.13;4775823;29;20055;-76
2024/03/10 06:36:46;;;;;;;4.47;3.40;;;;;;;11.69;25.80;100219.25;4760371;30;20078;-75
2024/03/10 06:39:17;;;;;;;5.70;3.30;;;;;;;12.31;25.92;100190.06;4757315;29;20047;-74
2024/03/10 06:41:43;;;;;;;5.63;3.70;;;;;;;13.33;24.95;100189.78;4775146;29;20051;-75
2024/03/10 06:44:09;;;;;;;4.63;3.47;;;;;;;14.04;24.82;100180.84;4757463;29;20056;-79
2024/03/10 06:46:35;;;;;;;4.70;3.38;;;;;;;14.94;24.29;100202.75;4747728;29;20040;-74
2024/03/10 06:49:01;;;;;;;5.93;3.83;;;;;;;15.36;23.03;100173.03;4772533;29;20158;-73
2024/03/10 06:51:27;;;;;;;10.48;3.92;;;;;;;15.60;22.92;100195.19;4803397;29;20051;-75
2024/03/10 06:53:53;;;;;;;5.85;3.90;;;;;;;15.59;22.74;100230.19;4775960;29;20051;-73
2024/03/10 06:56:20;;;;;;;7.15;3.83;;;;;;;15.04;22.41;100212.16;4773948;29;21576;-79
2024/03/10 06:58:53;;;;;;;5.97;3.88;;;;;;;14.60;21.68;100177.22;4771478;29;20074;-75
2024/03/10 07:01:23;;;;;;;11.25;3.67;;;;;;;15.20;22.08;100190.88;4775161;29;20051;-81
2024/03/10 07:03:49;;;;;;;5.95;3.40;;;;;;;16.29;22.00;100238.19;4778376;30;20040;-77
2024/03/10 07:06:15;;;;;;;8.15;3.47;;;;;;;17.79;21.61;100212.91;4787347;29;20043;-84
2024/03/10 07:08:44;;;;;;;7.55;3.13;;;;;;;19.45;20.79;100225.56;4787304;30;20043;-74
2024/03/10 07:11:15;;;;;;;5.15;3.10;;;;;;;19.67;19.96;100185.97;4779573;30;20543;-76
2024/03/10 07:13:41;;;;;;;6.28;2.92;;;;;;;19.26;19.88;100194.63;4771102;30;20131;-79
2024/03/10 07:16:08;;;;;;;7.30;2.83;;;;;;;19.35;19.37;100214.50;4762387;30;20058;-77
2024/03/10 07:18:37;;;;;;;4.63;2.90;;;;;;;18.90;19.20;100175.75;4797850;29;20039;-76
2024/03/10 07:21:05;;;;;;;4.75;2.58;;;;;;;19.48;18.89;100233.34;4768197;30;20043;-78
2024/03/10 07:23:33;;;;;;;4.63;2.77;;;;;;;20.20;18.98;100196.16;4789929;29;20046;-75
2024/03/10 07:26:00;;;;;;;2.45;2.20;;;;;;;21.83;18.48;100229.38;4789870;29;20043;-78
2024/03/10 07:28:26;;;;;;;4.35;2.30;;;;;;;22.58;17.31;100215.06;4780948;30;20401;-77
2024/03/10 07:30:54;;;;;;;3.08;2.38;;;;;;;23.34;17.86;100157.94;4754080;30;20047;-76
2024/03/10 07:33:20;;;;;;;4.20;2.38;;;;;;;24.48;16.82;100195.59;4810677;29;20432;-77
2024/03/10 07:35:46;;;;;;;4.57;2.35;;;;;;;23.63;16.67;100166.88;4794496;29;20043;-76
2024/03/10 07:38:13;;;;;;;5.03;2.50;;;;;;;22.31;16.51;100165.19;4760788;30;20059;-76
2024/03/10 07:40:42;;;;;;;3.95;2.13;;;;;;;21.43;16.79;100184.47;4762172;30;20059;-81
2024/03/10 07:43:10;;;;;;;5.40;2.10;;;;;;;20.50;16.92;100121.75;4777853;30;20558;-79
2024/03/10 07:45:36;;;;;;;4.57;2.55;;;;;;;21.63;16.98;100209.16;4795135;29;20410;-78
2024/03/10 07:48:05;;;;;;;3.75;2.42;;;;;;;22.22;16.79;100204.47;4755731;29;20200;-71
2024/03/10 07:50:31;;;;;;;2.83;2.13;;;;;;;21.24;16.50;100089.25;4794255;29;20043;-75
2024/03/10 07:52:57;;;;;;;3.53;2.38;;;;;;;22.33;16.57;100169.44;4752982;29;20575;-75
2024/03/10 07:55:24;;;;;;;4.53;2.20;;;;;;;21.94;16.34;100121.13;4794797;29;20070;-72
2024/03/10 07:57:50;;;;;;;3.33;2.10;;;;;;;24.09;16.66;100205.03;4781027;30;20039;-73
2024/03/10 08:00:21;;;;;;;9.95;2.22;;;;;;;24.83;15.55;100167.81;4751716;29;20073;-73
2024/03/10 08:02:47;;;;;;;;;;;;;;;25.65;15.89;100223.84;4783256;29;20423;-75
2024/03/10 08:05:13;;;;;;;2.83;1.90;;;;;;;25.88;15.18;100197.50;4799494;29;19921;-74
2024/03/10 08:07:42;;;;;;;3.45;2.55;;;;;;;25.90;14.66;100195.59;4780277;30;20046;-72
2024/03/10 08:10:15;;;;;;;3.33;2.60;;;;;;;26.68;15.17;100218.72;4752025;30;20163;-80
2024/03/10 08:12:49;;;;;;;3.70;2.25;;;;;;;27.10;14.71;100170.44;4780883;30;20051;-75
2024/03/10 08:15:19;;;;;;;3.95;2.42;;;;;;;27.98;14.43;100215.69;4781870;29;20081;-80
2024/03/10 08:17:45;;;;;;;3.88;2.20;;;;;;;27.59;14.21;100206.06;4776001;29;20044;-77
2024/03/10 08:20:15;;;;;;;3.63;2.22;;;;;;;28.03;13.73;100216.19;4789588;29;20047;-77
2024/03/10 08:22:55;;;;;;;4.72;2.60;;;;;;;28.03;13.60;100155.53;4775723;29;20039;-74
2024/03/10 08:25:37;;;;;;;5.05;2.38;;;;;;;28.09;13.39;100176.47;4760780;29;20051;-73
2024/03/10 08:28:04;;;;;;;3.35;2.92;;;;;;;28.36;13.13;100203.91;4777570;29;20036;-73
2024/03/10 08:30:54;;;;;;;4.03;2.47;;;;;;;28.63;13.13;100218.78;4808107;29;20112;-85
2024/03/10 08:33:21;;;;;;;2.63;2.42;;;;;;;28.76;13.16;100184.75;4768169;29;20134;-78
2024/03/10 08:35:47;;;;;;;3.00;2.30;;;;;;;29.53;12.72;100179.50;4791025;29;20514;-78
2024/03/10 08:38:13;;;;;;;3.83;2.08;;;;;;;29.89;12.68;100170.22;4795342;29;20140;-79
2024/03/10 08:40:41;;;;;;;2.20;2.00;;;;;;;30.15;12.74;100191.31;4789286;29;20142;-77
2024/03/10 08:43:07;;;;;;;2.83;2.03;;;;;;;30.58;12.50;100224.34;4810702;29;20085;-81
2024/03/10 08:45:33;;;;;;;2.25;2.05;;;;;;;30.97;12.64;100191.44;4780824;29;20082;-81
2024/03/10 08:47:59;;;;;;;2.65;2.00;;;;;;;31.10;12.46;100158.97;4776683;30;20047;-83
2024/03/10 08:50:28;;;;;;;3.58;1.90;;;;;;;30.91;11.59;100157.94;4763804;29;20078;-82
2024/03/10 08:52:54;;;;;;;3.15;1.80;;;;;;;30.91;11.98;100179.41;4782676;29;20059;-80
2024/03/10 08:55:21;;;;;;;3.83;2.40;;;;;;;31.16;11.38;100222.06;4801261;29;20081;-81
2024/03/10 08:57:49;;;;;;;4.47;2.22;;;;;;;31.11;11.60;100179.47;4791933;29;20070;-81
2024/03/10 09:00:17;;;;;;;2.55;2.35;;;;;;;31.37;11.42;100230.88;4781163;29;20063;-81
2024/03/10 09:02:43;;;;;;;3.58;2.53;;;;;;;30.60;11.95;100141.84;4766359;30;20036;-83
2024/03/10 09:05:12;;;;;;;4.53;2.22;;;;;;;30.98;11.54;100211.13;4807202;29;20051;-82
2024/03/10 09:07:39;;;;;;;2.75;2.10;;;;;;;31.22;11.96;100182.09;4793557;29;20051;-80
2024/03/10 09:10:05;;;;;;;3.10;2.20;;;;;;;32.08;12.16;100234.38;4775723;30;20165;-78
2024/03/10 09:12:32;;;;;;;4.18;2.33;;;;;;;32.36;11.61;100171.72;4764263;29;20039;-78
2024/03/10 09:14:59;;;;;;;4.00;2.45;;;;;;;32.92;11.38;100234.63;4763842;30;20096;-78
2024/03/10 09:17:25;;;;;;;3.80;2.60;;;;;;;31.98;11.14;100185.94;4793560;29;20047;-77
2024/03/10 09:19:52;;;;;;;4.35;2.53;;;;;;;31.60;10.90;100194.84;4789752;29;20051;-81
2024/03/10 09:22:19;;;;;;;3.50;2.38;;;;;;;31.24;11.56;100206.13;4806531;29;20127;-79
2024/03/10 09:24:48;;;;;;;11.10;10.02;;;;;;;31.05;11.20;100193.44;4756110;30;20137;-79
2024/03/10 09:27:19;;;;;;;10.05;5.00;;;;;;;30.68;11.04;100181.44;4764153;29;20043;-82
2024/03/10 09:29:46;;;;;;;4.15;3.10;;;;;;;30.48;11.23;100231.50;4762345;30;20051;-88
2024/03/10 09:32:15;;;;;;;4.90;4.15;;;;;;;29.79;11.84;100192.56;4789692;30;20044;-86
2024/03/10 09:34:42;;;;;;;3.97;2.50;;;;;;;29.37;11.84;100229.03;4789989;29;20054;-85
2024/03/10 09:37:09;;;;;;;3.35;2.63;;;;;;;29.57;11.97;100197.06;4773662;29;20117;-83
2024/03/10 09:39:35;;;;;;;3.15;2.67;;;;;;;30.42;12.01;100202.50;4780043;30;20509;-83
2024/03/10 09:42:04;;;;;;;4.38;2.80;;;;;;;31.31;12.12;100204.59;4784474;30;20051;-82
2024/03/10 09:44:32;;;;;;;3.55;2.70;;;;;;;31.50;11.38;100224.41;4811618;29;20043;-83
2024/03/10 09:47:01;;;;;;;3.08;2.75;;;;;;;29.70;11.21;100192.34;4774075;29;20083;-82
2024/03/10 09:49:28;;;;;;;2.75;2.50;;;;;;;28.10;11.59;100202.28;4791972;30;20055;-86
2024/03/10 09:51:57;;;;;;;3.10;2.60;;;;;;;26.99;11.91;100194.38;4787440;29;20051;-85
2024/03/10 09:54:23;;;;;;;4.25;3.08;;;;;;;25.75;12.19;100161.00;4783711;29;20055;-83
2024/03/10 09:56:52;;;;;;;3.00;2.60;;;;;;;24.99;12.44;100221.75;4780803;29;20039;-83
2024/03/10 09:59:51;;;;;;;3.28;2.70;;;;;;;25.26;13.06;100237.81;4767352;30;20142;-83
2024/03/10 10:02:43;;;;;;;5.00;3.13;;;;;;;23.88;12.83;100219.44;4770544;30;20425;-83
2024/03/10 10:05:24;;;;;;;2.83;2.53;;;;;;;21.27;12.94;100181.72;4785394;30;20476;-84
2024/03/10 10:07:52;;;;;;;2.72;2.35;;;;;;;19.60;14.11;100205.63;4801051;29;20047;-85
2024/03/10 10:10:22;;;;;;;4.03;2.50;;;;;;;18.26;14.50;100169.28;4787107;30;20497;-81
2024/03/10 10:12:53;;;;;;;4.28;2.20;;;;;;;18.33;15.24;100226.06;4797120;29;20043;-82
2024/03/10 10:15:26;;;;;;;2.38;1.83;;;;;;;19.16;15.11;100177.41;4782999;30;20058;-80
2024/03/10 10:17:57;;;;;;;7.22;2.38;;;;;;;19.79;15.19;100181.13;4782075;30;20043;-81
2024/03/10 10:20:25;;;;;;;2.53;2.13;;;;;;;20.22;15.11;100220.72;4749236;30;20054;-78
2024/03/10 10:22:55;;;;;;;6.80;2.70;;;;;;;19.02;14.98;100243.88;4760315;30;20077;-76
2024/03/10 10:25:22;;;;;;;5.03;2.70;;;;;;;17.01;15.47;100188.94;4790591;29;20582;-79
2024/03/10 10:27:50;;;;;;;2.45;2.08;;;;;;;15.27;15.96;100186.34;4791604;29;20077;-76
2024/03/10 10:30:22;;;;;;;2.22;1.90;;;;;;;14.21;16.65;100200.63;4778143;30;20098;-75
2024/03/10 10:33:11;;;;;;;3.35;1.77;;;;;;;13.69;17.92;100253.75;4805219;29;20108;-70
2024/03/10 10:35:42;;;;;;;3.00;1.90;;;;;;;13.04;18.09;100285.91;4779662;30;20503;-77
2024/03/10 10:38:12;;;;;;;;;;;;;;;12.37;18.78;100282.22;4779969;30;20053;-84
2024/03/10 10:40:51;;;;;;;3.67;2.13;;;;;;;11.86;18.61;100270.41;4794280;29;20055;-75
2024/03/10 10:43:17;;;;;;;3.15;1.70;;;;;;;11.39;19.22;100275.88;4786435;29;20469;-85
2024/03/10 10:45:44;;;;;;;2.95;1.80;;;;;;;10.91;19.26;100228.34;4769986;29;20051;-75
2024/03/10 10:48:11;;;;;;;2.67;1.30;;;;;;;11.12;19.69;100282.06;4760743;30;20058;-73
2024/03/10 10:50:42;;;;;;;1.83;1.42;;;;;;;10.62;19.90;100250.94;4785954;29;20345;-75
2024/03/10 10:53:11;;;;;;;2.40;1.40;;;;;;;10.04;20.34;100186.84;4797269;29;20063;-75
2024/03/10 10:55:39;;;;;;;2.55;1.40;;;;;;;10.12;20.34;100302.09;4766605;30;20048;-74
2024/03/10 10:58:10;;;;;;;2.70;1.50;;;;;;;9.55;21.08;100269.09;4821083;29;20436;-76
2024/03/10 11:00:39;;;;;;;2.67;1.40;;;;;;;9.23;21.45;100256.84;4777094;29;20067;-74
2024/03/10 11:03:17;;;;;;;3.38;1.65;;;;;;;9.07;21.64;100275.81;4806287;29;20066;-75
2024/03/10 11:06:05;;;;;;;2.53;1.35;;;;;;;9.20;21.95;100300.97;4788517;29;20051;-75
2024/03/10 11:08:35;;;;;;;3.78;1.70;;;;;;;8.95;22.06;100308.63;4778444;29;20051;-74
2024/03/10 11:11:03;;;;;;;5.18;1.63;;;;;;;8.74;22.36;100297.25;4778913;29;20047;-71
2024/03/10 11:13:29;;;;;;;3.95;2.30;;;;;;;8.43;22.25;100288.34;4780970;30;20058;-75
2024/03/10 11:16:23;;;;;;;4.88;1.92;;;;;;;7.37;22.91;100195.88;4809383;29;20047;-77
2024/03/10 11:18:50;;;;;;;2.72;1.45;;;;;;;7.49;22.76;100255.53;4784383;30;20167;-80
2024/03/10 11:21:18;;;;;;;1.67;1.25;;;;;;;6.61;23.41;100141.50;4781414;30;20059;-81
2024/03/10 11:23:46;;;;;;;2.17;1.38;;;;;;;6.88;23.59;100206.50;4785387;30;20051;-72
2024/03/10 11:26:19;;;;;;;3.25;1.33;;;;;;;6.91;23.74;100237.56;4794363;29;20051;-72
2024/03/10 11:28:49;;;;;;;11.88;1.55;;;;;;;7.32;23.69;100321.78;4766304;30;20039;-75
2024/03/10 11:31:19;;;;;;;2.78;1.48;;;;;;;7.06;23.92;100323.16;4809380;29;20047;-70
2024/03/10 11:33:52;;;;;;;2.30;1.38;;;;;;;6.77;24.26;100304.66;4778558;30;20062;-67
2024/03/10 11:36:24;;;;;;;2.83;1.30;;;;;;;6.45;24.03;100312.78;4793700;29;20150;-68
2024/03/10 11:38:52;;;;;;;2.83;1.30;;;;;;;6.23;24.50;100285.69;4754313;30;20043;-67
2024/03/10 11:41:20;;;;;;;1.73;1.27;;;;;;;5.96;25.00;100279.22;4778512;30;20499;-68
2024/03/10 11:43:47;;;;;;;2.67;1.40;;;;;;;6.19;25.31;100297.72;4775626;30;20039;-68
2024/03/10 11:46:29;;;;;;;3.05;1.60;;;;;;;6.45;25.17;100318.81;4763248;30;20130;-66
2024/03/10 11:48:56;;;;;;;2.63;1.40;;;;;;;6.39;25.05;100297.16;4779165;30;20039;-65
2024/03/10 11:51:30;;;;;;;4.13;1.35;;;;;;;6.28;25.88;100289.25;4795620;29;20087;-68
2024/03/10 11:53:59;;;;;;;2.03;1.58;;;;;;;5.61;25.37;100202.84;4791826;29;20043;-67